Latest Weather Observations for Combienbar

IDV60801

Issued at 6:22 pm EST Wednesday 24 April 2019 (issued every 10 minutes, with the page automatically refreshed every 10 minutes)

About weather observations | Map of weather stations | Latest weather observations for VIC | Other Formats
Station Details ID: 084143 Name: COMBIENBAR AWS Lat: -37.34 Lon: 149.02 Height: 640.0 m
Data from the previous 72 hours. | See also: Recent months at Combienbar
Date/Time
EST
Temp
°C
App
Temp
°C
Dew
Point
°C
Rel
Hum
%
Delta-T
°C
Wind Press
QNH
hPa
Press
MSL
hPa
Rain since
9am
mm
Dir  Spd
km/h
Gust
km/h
Spd
kts
Gust
kts
24/06:00pm 17.2 19.2 15.9 92 0.8 CALM 0 0 0 0 1022.2 1021.1 0.0
24/05:30pm 18.0 19.7 15.1 83 1.7 CALM 0 0 0 0 1021.8 1020.7 0.0
24/05:00pm 18.1 19.8 15.2 83 1.7 CALM 0 0 0 0 1021.6 1020.5 0.0
24/04:30pm 18.6 20.5 15.8 84 1.7 CALM 0 0 0 0 1021.6 1020.5 0.0
24/04:00pm 18.9 20.7 15.6 81 2.0 CALM 0 0 0 0 1021.9 1020.8 0.0
24/03:30pm 19.2 20.9 15.3 78 2.4 CALM 0 0 0 0 1022.2 1021.1 0.0
24/03:00pm 19.2 21.0 15.5 79 2.2 CALM 0 0 0 0 1022.5 1021.4 0.0
24/02:30pm 19.7 21.3 14.9 74 2.9 CALM 0 0 0 0 1022.6 1021.5 0.0
24/02:00pm 20.1 21.8 15.1 73 3.0 CALM 0 0 0 0 1022.7 1021.7 0.0
24/01:30pm 19.7 21.3 14.9 74 2.9 CALM 0 2 0 1 1022.9 1021.8 0.0
24/01:00pm 20.1 21.4 14.2 69 3.5 CALM 0 0 0 0 1023.0 1021.9 0.0
24/12:30pm 21.1 22.5 14.3 65 4.1 CALM 0 2 0 1 1023.1 1022.0 0.0
24/12:00pm 21.4 22.6 13.8 62 4.5 CALM 0 0 0 0 1023.3 1022.2 0.0
24/11:30am 22.1 23.7 15.0 64 4.3 CALM 0 2 0 1 1023.5 1022.4 0.0
24/11:00am 21.9 22.3 13.8 60 4.8 NE 4 6 2 3 1023.9 1022.8 0.0
24/10:30am 21.1 21.8 14.5 66 4.0 NNE 4 7 2 4 1024.2 1023.2 0.0
24/10:00am 19.1 19.9 14.8 76 2.6 NNE 4 6 2 3 1024.6 1023.5 0.0
24/09:30am 17.3 18.6 14.0 81 1.9 CALM 0 2 0 1 1024.9 1023.8 0.0
24/09:00am 18.2 18.6 13.7 75 2.6 NNE 4 6 2 3 1025.2 1024.1 0.0
24/08:30am 16.4 17.8 14.4 88 1.2 CALM 0 0 0 0 1025.3 1024.2 0.0
24/08:00am 14.6 15.4 12.6 88 1.1 CALM 0 2 0 1 1025.2 1024.1 0.0
24/07:30am 13.9 14.7 12.6 92 0.7 CALM 0 0 0 0 1025.1 1024.0 0.0
24/07:00am 12.7 12.9 11.9 95 0.4 NNE 2 4 1 2 1024.9 1023.8 0.0
24/06:30am 12.4 12.9 11.6 95 0.4 CALM 0 0 0 0 1025.0 1023.9 0.0
24/06:00am 12.5 13.0 11.7 95 0.4 CALM 0 0 0 0 1024.9 1023.8 0.0
24/05:30am 12.8 13.4 11.9 94 0.5 CALM 0 0 0 0 1024.8 1023.7 0.0
24/05:00am 12.7 13.4 12.1 96 0.3 CALM 0 0 0 0 1025.0 1023.9 0.0
24/04:30am 12.6 13.3 12.1 97 0.3 CALM 0 0 0 0 1025.0 1023.9 0.0
24/04:00am 12.5 13.1 12.0 97 0.3 CALM 0 0 0 0 1024.9 1023.8 0.0
24/03:30am 12.7 13.4 12.2 97 0.3 CALM 0 0 0 0 1025.1 1024.0 0.0
24/03:00am 12.9 13.7 12.4 97 0.3 CALM 0 4 0 2 1025.3 1024.2 0.0
24/02:30am 13.3 14.2 12.8 97 0.3 CALM 0 0 0 0 1025.6 1024.6 0.0
24/02:00am 13.6 14.6 13.1 97 0.3 CALM 0 0 0 0 1026.0 1025.0 0.0
24/01:30am 13.6 14.6 13.3 98 0.2 CALM 0 4 0 2 1026.6 1025.5 0.0
24/01:00am 13.6 14.6 13.3 98 0.2 CALM 0 0 0 0 1026.7 1025.6 0.0
24/12:30am 13.7 14.8 13.4 98 0.2 CALM 0 0 0 0 1027.0 1026.0 0.0
24/12:00am 13.6 14.6 13.3 98 0.2 CALM 0 0 0 0 1027.5 1026.5 0.0
 
Date/Time
EST
Temp
°C
App
Temp
°C
Dew
Point
°C
Rel
Hum
%
Delta-T
°C
Wind Press
QNH
hPa
Press
MSL
hPa
Rain since
9am
mm
Dir  Spd
km/h
Gust
km/h
Spd
kts
Gust
kts
23/11:30pm 13.6 14.6 13.1 97 0.3 CALM 0 0 0 0 1027.5 1026.5 0.0
23/11:00pm 13.9 15.0 13.4 97 0.3 CALM 0 0 0 0 1027.7 1026.7 0.0
23/10:30pm 14.1 15.2 13.6 97 0.3 CALM 0 0 0 0 1027.9 1026.8 0.0
23/10:00pm 14.2 15.4 13.7 97 0.3 CALM 0 0 0 0 1028.3 1027.3 0.0
23/09:30pm 14.2 15.3 13.6 96 0.3 CALM 0 0 0 0 1028.4 1027.4 0.0
23/09:00pm 14.2 15.4 13.7 97 0.3 CALM 0 0 0 0 1028.7 1027.7 0.0
23/08:30pm 14.1 15.2 13.6 97 0.3 CALM 0 0 0 0 1028.7 1027.7 0.0
23/08:00pm 14.3 15.5 13.7 96 0.3 CALM 0 0 0 0 1028.7 1027.7 0.0
23/07:30pm 14.6 15.8 13.8 95 0.5 CALM 0 0 0 0 1028.5 1027.5 0.0
23/07:00pm 14.8 16.0 13.8 94 0.6 CALM 0 0 0 0 1028.3 1027.3 0.0
23/06:30pm 15.4 16.7 14.1 92 0.8 CALM 0 0 0 0 1028.1 1027.0 0.0
23/06:00pm 15.4 16.6 13.8 90 0.9 CALM 0 0 0 0 1027.9 1026.8 0.0
23/05:30pm 15.5 16.7 13.7 89 1.0 CALM 0 0 0 0 1027.6 1026.6 0.0
23/05:00pm 16.1 17.3 13.8 86 1.3 CALM 0 0 0 0 1027.2 1026.2 0.0
23/04:30pm 16.7 18.0 14.0 84 1.6 CALM 0 0 0 0 1027.3 1026.3 0.0
23/04:00pm 18.3 19.6 14.2 77 2.4 CALM 0 0 0 0 1027.1 1026.1 0.0
23/03:30pm 19.1 20.6 14.6 75 2.7 CALM 0 0 0 0 1027.1 1026.1 0.0
23/03:00pm 18.5 19.9 14.4 77 2.4 CALM 0 4 0 2 1027.2 1026.2 0.0
23/02:30pm 17.1 18.4 14.2 83 1.7 CALM 0 0 0 0 1027.2 1026.2 0.0
23/02:00pm 18.0 19.5 14.7 81 2.0 CALM 0 4 0 2 1027.2 1026.2 0.0
23/01:30pm 17.4 18.6 13.9 80 2.1 CALM 0 0 0 0 1027.4 1026.4 0.0
23/01:00pm 16.3 17.5 13.8 85 1.4 CALM 0 0 0 0 1027.5 1026.5 0.0
23/12:30pm 16.3 17.7 14.5 89 1.1 CALM 0 0 0 0 1028.0 1026.9 0.0
23/12:00pm 15.8 17.1 14.2 90 0.9 CALM 0 4 0 2 1028.4 1027.4 0.0
23/11:30am 14.6 15.7 13.6 94 0.6 CALM 0 0 0 0 1028.8 1027.8 0.0
23/11:00am 14.0 15.1 13.4 96 0.3 CALM 0 0 0 0 1028.9 1027.9 0.0
23/10:30am 13.7 14.8 13.4 98 0.2 CALM 0 0 0 0 1029.0 1028.0 0.0
23/10:00am 12.6 13.3 12.3 98 0.2 CALM 0 0 0 0 1028.8 1027.8 0.0
23/09:30am 12.1 12.7 11.8 98 0.2 CALM 0 0 0 0 1028.8 1027.8 0.0
23/09:00am 12.0 12.5 11.7 98 0.2 CALM 0 0 0 0 1028.7 1027.7 1.6
23/08:30am 12.2 12.8 11.9 98 0.2 CALM 0 2 0 1 1028.7 1027.7 1.6
23/08:00am 12.0 12.2 11.7 98 0.2 E 2 6 1 3 1028.2 1027.2 1.6
23/07:30am 12.8 13.2 12.6 99 0.1 NNE 2 6 1 3 1027.9 1026.8 1.6
23/07:00am 11.8 11.9 11.5 98 0.2 NNE 2 6 1 3 1027.7 1026.7 1.6
23/06:30am 11.7 10.8 11.4 98 0.2 NNE 7 11 4 6 1027.7 1026.7 1.6
23/06:00am 11.8 11.1 11.5 98 0.2 NNE 6 7 3 4 1027.6 1026.6 1.6
23/05:30am 11.7 11.0 11.4 98 0.2 NNE 6 9 3 5 1027.7 1026.7 1.4
23/05:00am 11.7 10.8 11.4 98 0.2 NE 7 13 4 7 1027.6 1026.6 1.4
23/04:30am 11.5 11.1 11.2 98 0.2 NE 4 6 2 3 1027.5 1026.5 1.4
23/04:00am 11.3 11.6 11.0 98 0.2 CALM 0 0 0 0 1027.4 1026.4 1.4
23/03:30am 11.3 11.6 11.0 98 0.2 CALM 0 0 0 0 1027.7 1026.7 1.4
23/03:00am 11.6 11.3 11.3 98 0.2 NNE 4 6 2 3 1027.6 1026.6 1.4
23/02:30am 11.5 11.5 11.2 98 0.2 NNE 2 4 1 2 1027.9 1026.8 1.4
23/02:00am 11.2 11.5 10.9 98 0.2 CALM 0 0 0 0 1028.3 1027.3 1.4
23/01:30am 11.3 11.6 11.0 98 0.2 CALM 0 0 0 0 1028.8 1027.8 1.4
23/01:00am 11.4 11.8 11.1 98 0.2 CALM 0 0 0 0 1028.8 1027.8 1.4
23/12:30am 11.4 11.8 11.1 98 0.2 CALM 0 0 0 0 1028.8 1027.8 1.4
23/12:00am 11.1 11.4 10.8 98 0.2 CALM 0 0 0 0 1028.8 1027.8 1.4
 
Date/Time
EST
Temp
°C
App
Temp
°C
Dew
Point
°C
Rel
Hum
%
Delta-T
°C
Wind Press
QNH
hPa
Press
MSL
hPa
Rain since
9am
mm
Dir  Spd
km/h
Gust
km/h
Spd
kts
Gust
kts
22/11:30pm 10.8 10.9 10.3 97 0.3 CALM 0 0 0 0 1028.8 1027.8 1.4
22/11:00pm 11.1 11.4 10.8 98 0.2 CALM 0 6 0 3 1028.6 1027.6 1.4
22/10:30pm 11.5 11.9 11.2 98 0.2 CALM 0 0 0 0 1028.9 1027.9 1.4
22/10:00pm 11.3 11.6 11.0 98 0.2 CALM 0 0 0 0 1029.0 1028.0 1.4
22/09:30pm 11.5 11.9 11.2 98 0.2 CALM 0 0 0 0 1029.2 1028.2 1.4
22/09:00pm 11.6 12.0 11.3 98 0.2 CALM 0 0 0 0 1029.1 1028.1 1.4
22/08:30pm 11.6 12.0 11.3 98 0.2 CALM 0 0 0 0 1028.9 1027.9 1.4
22/08:00pm 11.5 11.9 11.2 98 0.2 CALM 0 0 0 0 1029.0 1028.0 1.4
22/07:30pm 11.5 11.9 11.2 98 0.2 CALM 0 0 0 0 1028.7 1027.7 1.0
22/07:00pm 11.5 11.9 11.2 98 0.2 CALM 0 0 0 0 1028.6 1027.6 1.0
22/06:30pm 11.6 12.0 11.3 98 0.2 CALM 0 0 0 0 1028.4 1027.4 0.8
22/06:00pm 11.7 12.1 11.4 98 0.2 CALM 0 0 0 0 1028.0 1026.9 0.6
22/05:30pm 11.5 11.9 11.2 98 0.2 CALM 0 0 0 0 1027.7 1026.7 0.6
22/05:00pm 11.5 11.9 11.2 98 0.2 CALM 0 2 0 1 1027.3 1026.3 0.6
22/04:30pm 11.8 11.9 11.5 98 0.2 SSW 2 6 1 3 1027.0 1026.0 0.4
22/04:00pm 12.1 12.3 11.8 98 0.2 SW 2 6 1 3 1026.6 1025.5 0.2
22/03:30pm 12.6 13.3 12.3 98 0.2 CALM 0 4 0 2 1026.5 1025.4 0.2
22/03:00pm 12.8 13.6 12.5 98 0.2 CALM 0 4 0 2 1026.4 1025.3 0.2
22/02:30pm 13.0 13.8 12.7 98 0.2 CALM 0 2 0 1 1026.2 1025.1 0.2
22/02:00pm 13.5 14.5 13.2 98 0.2 CALM 0 0 0 0 1026.0 1025.0 0.2
22/01:30pm 13.2 14.0 12.7 97 0.3 CALM 0 0 0 0 1025.9 1024.9 0.0
22/01:00pm 13.6 14.5 12.8 95 0.4 CALM 0 2 0 1 1025.6 1024.6 0.0
22/12:30pm 14.3 15.3 13.3 94 0.6 CALM 0 0 0 0 1025.7 1024.7 0.0
22/12:00pm 13.7 14.7 13.1 96 0.3 CALM 0 0 0 0 1025.8 1024.8 0.0
22/11:30am 13.5 14.4 13.0 97 0.3 CALM 0 0 0 0 1025.8 1024.8 0.0
22/11:00am 13.4 14.3 12.9 97 0.3 CALM 0 0 0 0 1025.8 1024.8 0.0
22/10:30am 13.6 14.6 13.3 98 0.2 CALM 0 0 0 0 1026.0 1025.0 0.0
22/10:00am 13.4 14.4 13.1 98 0.2 CALM 0 0 0 0 1025.7 1024.7 0.0
22/09:30am 13.2 14.0 12.7 97 0.3 CALM 0 0 0 0 1025.7 1024.7 0.0
22/09:00am 13.1 13.9 12.6 97 0.3 CALM 0 0 0 0 1025.5 1024.5 0.0
22/08:30am 13.0 13.8 12.5 97 0.3 CALM 0 0 0 0 1025.5 1024.5 0.0
22/08:00am 13.0 13.8 12.5 97 0.3 CALM 0 0 0 0 1025.3 1024.2 0.0
22/07:30am 13.0 13.8 12.4 96 0.3 CALM 0 0 0 0 1025.0 1023.9 0.0
22/07:00am 13.1 13.9 12.5 96 0.3 CALM 0 0 0 0 1024.4 1023.4 0.0
22/06:30am 13.1 13.9 12.5 96 0.3 CALM 0 0 0 0 1024.2 1023.2 0.0
22/06:00am 13.1 13.8 12.3 95 0.4 CALM 0 0 0 0 1024.0 1023.0 0.0
22/05:30am 13.1 13.8 12.2 94 0.5 CALM 0 0 0 0 1023.8 1022.7 0.0
22/05:00am 13.1 13.7 12.0 93 0.6 CALM 0 0 0 0 1023.7 1022.6 0.0
22/04:30am 13.0 13.4 11.2 89 1.0 CALM 0 0 0 0 1023.5 1022.4 0.0
22/04:00am 13.5 13.9 11.2 86 1.3 CALM 0 0 0 0 1023.4 1022.3 0.0
22/03:30am 13.7 14.0 11.0 84 1.5 CALM 0 0 0 0 1023.0 1021.9 0.0
22/03:00am 14.8 14.9 11.6 81 1.8 SSW 2 6 1 3 1022.6 1021.5 0.0
22/02:30am 18.0 18.4 11.3 65 3.8 CALM 0 0 0 0 1022.1 1021.0 0.0
22/02:00am 18.2 18.7 11.5 65 3.8 CALM 0 0 0 0 1022.2 1021.1 0.0
22/01:30am 18.9 19.3 11.2 61 4.3 CALM 0 7 0 4 1022.1 1021.0 0.0
22/01:00am 19.0 19.0 11.3 61 4.3 WNW 2 9 1 5 1022.2 1021.1 0.0
22/12:30am 19.0 19.1 11.6 62 4.2 NW 2 6 1 3 1022.1 1021.0 0.0
22/12:00am 18.4 19.0 11.9 66 3.7 CALM 0 0 0 0 1022.0 1020.9 0.0
 
Date/Time
EST
Temp
°C
App
Temp
°C
Dew
Point
°C
Rel
Hum
%
Delta-T
°C
Wind Press
QNH
hPa
Press
MSL
hPa
Rain since
9am
mm
Dir  Spd
km/h
Gust
km/h
Spd
kts
Gust
kts
21/11:30pm 19.1 18.8 11.4 61 4.4 NW 4 7 2 4 1022.0 1020.9 0.0
21/11:00pm 19.2 18.9 11.3 60 4.4 N 4 11 2 6 1022.1 1021.0 0.0
21/10:30pm 19.2 19.6 11.3 60 4.5 CALM 0 2 0 1 1022.2 1021.1 0.0
21/10:00pm 19.3 19.7 11.1 59 4.6 CALM 0 2 0 1 1022.3 1021.2 0.0
21/09:30pm 19.6 19.9 10.9 57 4.9 CALM 0 4 0 2 1022.5 1021.4 0.0
21/09:00pm 20.2 20.0 10.6 54 5.4 NW 2 6 1 3 1022.3 1021.2 0.0
21/08:30pm 19.9 19.3 10.3 54 5.3 NNW 4 9 2 5 1022.2 1021.1 0.0
21/08:00pm 19.3 18.5 9.8 54 5.2 N 4 6 2 3 1022.1 1021.0 0.0
21/07:30pm 19.3 18.7 10.3 56 5.0 NNE 4 6 2 3 1022.0 1020.9 0.0
21/07:00pm 19.7 20.0 10.9 57 4.9 CALM 0 0 0 0 1022.1 1021.0 0.0
21/06:30pm 19.8 19.8 11.0 57 5.0 NNE 2 6 1 3 1022.2 1021.1 0.0

Other formats

Comma delimited format used in spreadsheet applications
http://www.bom.gov.au/fwo/IDV60801/IDV60801.94914.axf

JavaScript Object Notation format (JSON) in row-major order
http://www.bom.gov.au/fwo/IDV60801/IDV60801.94914.json

Data quality

Most of these data are generated automatically and are frequently updated. Quality checks on data are not normally performed. It is possible for incorrect values to appear. Refer to information at About Latest Weather Observations and please check the disclaimer before using these data.